Time;durP1;ratioP1;P1;durP2;ratioP2;P2;SDS_P1;SDS_P2;PMS_P1;PMS_P2;Temp;Humidity;BMP_temperature;BMP_pressure;BME280_temperature;BME280_humidity;BME280_pressure;Samples;Min_cycle;Max_cycle;Signal;HPM_P1;HPM_P2
2021/05/04 00:05:01;;;;;;;8.27;4.75;;;;;;;;;;4243618;33;20156;-77
2021/05/04 00:07:50;;;;;;;9.37;5.53;;;;;;;;;;4242899;33;20173;-77
2021/05/04 00:10:44;;;;;;;7.63;4.97;;;;;;;;;;4228952;34;20150;-77
2021/05/04 00:22:27;;;;;;;9.57;5.07;;;;;;;;;;4346304;33;20162;-76
2021/05/04 00:28:15;;;;;;;9.97;6.07;;;;;;;;;;4346186;33;20136;-75
2021/05/04 00:30:40;;;;;;;10.77;5.53;;;;;;;;;;4339045;33;20201;-76
2021/05/04 00:33:16;;;;;;;10.65;5.55;;;;;;;;;;4345590;33;20135;-76
2021/05/04 00:35:43;;;;;;;9.10;6.13;;;;;;;;;;4345586;33;20155;-76
2021/05/04 00:41:02;;;;;;;7.67;4.90;;;;;;;;;;4345596;33;20225;-76
2021/05/04 00:43:51;;;;;;;7.37;4.80;;;;;;;;;;4345828;33;20147;-76
2021/05/04 00:46:52;;;;;;;8.27;5.40;;;;;;;;;;4345495;33;20175;-76
2021/05/04 00:49:49;;;;;;;8.80;5.37;;;;;;;;;;4345844;33;20576;-76
2021/05/04 00:52:17;;;;;;;8.97;5.37;;;;;;;;;;4325994;33;20237;-76
2021/05/04 00:55:17;;;;;;;;;;;;;;;;;;;;;
2021/05/04 00:57:41;;;;;;;8.43;5.07;;;;;;;;;;4341928;33;20202;-77
2021/05/04 01:00:16;;;;;;;12.83;6.50;;;;;;;;;;4345439;33;20146;-77
2021/05/04 01:02:57;;;;;;;9.67;6.40;;;;;;;;;;4331888;33;20150;-77
2021/05/04 01:20:36;;;;;;;15.60;6.90;;;;;;;;;;4273977;33;20144;-75
2021/05/04 01:23:20;;;;;;;5.70;3.83;;;;;;;;;;4279076;33;20220;-74
2021/05/04 01:25:46;;;;;;;9.10;6.77;;;;;;;;;;4287873;33;20193;-75
2021/05/04 01:28:16;;;;;;;9.40;6.40;;;;;;;;;;4312818;33;20183;-75
2021/05/04 01:33:30;;;;;;;8.70;5.70;;;;;;;;;;4339098;33;20193;-75
2021/05/04 01:36:18;;;;;;;9.40;6.97;;;;;;;;;;4362992;32;20580;-76
2021/05/04 01:38:49;;;;;;;8.93;5.27;;;;;;;;;;4374164;32;20488;-75
2021/05/04 01:41:17;;;;;;;11.07;6.03;;;;;;;;;;4363187;32;20132;-75
2021/05/04 01:44:13;;;;;;;5.83;4.07;;;;;;;;;;4362246;32;20139;-76
2021/05/04 01:46:47;;;;;;;6.77;4.77;;;;;;;;;;4362993;32;20136;-74
2021/05/04 01:49:22;;;;;;;;;;;;;;;;;;;;;
2021/05/04 01:51:48;;;;;;;7.70;5.23;;;;;;;;;;4359931;32;20146;-74
2021/05/04 01:54:13;;;;;;;8.32;5.50;;;;;;;;;;4362491;32;20170;-75
2021/05/04 01:56:57;;;;;;;;;;;;;;;;;;;;;
2021/05/04 01:59:30;;;;;;;6.67;4.80;;;;;;;;;;4362863;32;20147;-74
2021/05/04 02:06:05;;;;;;;7.45;4.10;;;;;;;;;;4354382;32;20257;-75
2021/05/04 02:11:16;;;;;;;;;;;;;;;;;;;;;
2021/05/04 02:13:49;;;;;;;5.83;4.07;;;;;;;;;;4343531;33;20193;-74
2021/05/04 02:16:17;;;;;;;6.30;4.10;;;;;;;;;;4347944;33;20166;-74
2021/05/04 02:18:52;;;;;;;6.60;4.60;;;;;;;;;;4347484;33;20165;-74
2021/05/04 02:21:51;;;;;;;6.33;4.00;;;;;;;;;;4356111;33;20555;-76
2021/05/04 02:33:45;;;;;;;5.90;4.20;;;;;;;;;;4315970;33;20143;-76
2021/05/04 02:54:59;;;;;;;9.27;5.80;;;;;;;;;;4175091;34;20189;-76
2021/05/04 03:06:53;;;;;;;4.70;3.77;;;;;;;;;;4208465;34;20686;-76
2021/05/04 03:12:56;;;;;;;9.07;3.80;;;;;;;;;;4215396;34;20293;-75
2021/05/04 03:15:22;;;;;;;3.97;2.87;;;;;;;;;;4204516;34;20597;-75
2021/05/04 03:20:52;;;;;;;5.30;3.47;;;;;;;;;;4299790;33;20206;-76
2021/05/04 03:41:41;;;;;;;6.33;3.60;;;;;;;;;;4312173;33;20608;-77
2021/05/04 03:44:38;;;;;;;4.13;2.67;;;;;;;;;;4315084;33;20229;-74
2021/05/04 03:50:22;;;;;;;4.40;3.47;;;;;;;;;;4291819;33;20220;-74
2021/05/04 03:53:07;;;;;;;8.90;4.87;;;;;;;;;;4257385;33;20153;-74
2021/05/04 03:56:11;;;;;;;6.40;4.73;;;;;;;;;;4258948;33;20157;-75
2021/05/04 04:01:57;;;;;;;9.07;4.07;;;;;;;;;;4300246;33;20231;-74
2021/05/04 04:04:26;;;;;;;5.93;3.70;;;;;;;;;;4300168;33;20143;-73
2021/05/04 04:07:17;;;;;;;7.80;4.07;;;;;;;;;;4336710;33;20210;-74
2021/05/04 04:10:01;;;;;;;5.63;3.43;;;;;;;;;;4361279;32;20144;-75
2021/05/04 04:12:26;;;;;;;9.10;3.63;;;;;;;;;;4361208;32;20135;-75
2021/05/04 04:15:16;;;;;;;5.37;3.00;;;;;;;;;;4360254;32;20165;-74
2021/05/04 04:17:42;;;;;;;9.80;3.33;;;;;;;;;;4360603;32;20146;-69
2021/05/04 04:20:22;;;;;;;7.57;3.50;;;;;;;;;;4360503;32;20173;-76
2021/05/04 04:26:13;;;;;;;4.10;2.70;;;;;;;;;;4360507;32;20166;-75
2021/05/04 04:32:03;;;;;;;;;;;;;;;;;;;;;
2021/05/04 04:34:29;;;;;;;5.90;2.60;;;;;;;;;;4360655;32;20236;-76
2021/05/04 04:37:07;;;;;;;7.93;3.13;;;;;;;;;;4360315;33;20142;-74
2021/05/04 04:39:35;;;;;;;7.50;2.80;;;;;;;;;;4345970;33;20538;-75
2021/05/04 04:50:47;;;;;;;7.77;3.03;;;;;;;;;;4354803;33;20516;-75
2021/05/04 04:59:37;;;;;;;12.27;3.90;;;;;;;;;;4360219;33;20157;-77
2021/05/04 05:02:32;;;;;;;13.20;3.47;;;;;;;;;;4360522;33;20178;-75
2021/05/04 05:05:03;;;;;;;12.13;3.30;;;;;;;;;;4344174;33;20182;-74
2021/05/04 05:07:34;;;;;;;15.30;3.30;;;;;;;;;;4359757;33;20174;-74
2021/05/04 05:09:59;;;;;;;12.67;2.80;;;;;;;;;;4360698;33;20139;-74
2021/05/04 05:18:18;;;;;;;19.35;2.92;;;;;;;;;;4345359;33;20307;-75
2021/05/04 05:20:46;;;;;;;6.47;1.60;;;;;;;;;;4345828;33;20147;-74
2021/05/04 05:32:32;;;;;;;7.10;1.37;;;;;;;;;;4320372;33;20603;-75
2021/05/04 05:35:08;;;;;;;;;;;;;;;;;;;;;
2021/05/04 05:37:36;;;;;;;8.98;2.25;;;;;;;;;;4328834;33;20148;-76
2021/05/04 05:43:04;;;;;;;10.40;2.05;;;;;;;;;;4298748;33;20156;-76
2021/05/04 05:55:00;;;;;;;12.88;2.50;;;;;;;;;;4345286;33;20154;-76
2021/05/04 06:00:34;;;;;;;23.35;2.97;;;;;;;;;;4270482;33;20201;-77
2021/05/04 06:03:10;;;;;;;18.08;3.80;;;;;;;;;;4342752;33;20210;-76
2021/05/04 06:05:35;;;;;;;16.55;3.70;;;;;;;;;;4331117;33;20174;-77
2021/05/04 06:08:38;;;;;;;;;;;;;;;;;;;;;
2021/05/04 06:11:11;;;;;;;21.33;3.65;;;;;;;;;;4343481;33;20175;-79
2021/05/04 06:13:51;;;;;;;10.35;3.10;;;;;;;;;;4338189;32;20191;-77
2021/05/04 06:19:12;;;;;;;17.25;3.62;;;;;;;;;;4360742;32;20185;-74
2021/05/04 06:24:54;;;;;;;15.93;3.30;;;;;;;;;;4358290;33;20143;-78
2021/05/04 06:27:19;;;;;;;15.00;2.95;;;;;;;;;;4359799;32;20146;-77
2021/05/04 06:29:50;;;;;;;17.52;3.33;;;;;;;;;;4359964;33;20454;-76
2021/05/04 06:32:38;;;;;;;13.18;2.95;;;;;;;;;;4359720;32;20213;-78
2021/05/04 06:38:29;;;;;;;17.50;3.35;;;;;;;;;;4359673;32;20189;-77
2021/05/04 06:41:07;;;;;;;17.90;3.72;;;;;;;;;;4344117;33;20236;-76
2021/05/04 06:43:47;;;;;;;14.25;3.20;;;;;;;;;;4332598;33;20182;-77
2021/05/04 06:46:34;;;;;;;14.07;3.00;;;;;;;;;;4344592;33;20135;-76
2021/05/04 06:49:37;;;;;;;21.50;4.57;;;;;;;;;;4346712;33;20174;-76
2021/05/04 06:52:24;;;;;;;16.67;2.95;;;;;;;;;;4361899;32;20143;-77
2021/05/04 06:54:52;;;;;;;21.83;3.95;;;;;;;;;;4361703;32;20159;-77
2021/05/04 06:57:53;;;;;;;19.00;3.58;;;;;;;;;;4348304;33;20186;-76
2021/05/04 07:00:32;;;;;;;18.48;4.25;;;;;;;;;;4301585;33;20558;-77
2021/05/04 07:03:09;;;;;;;19.30;2.87;;;;;;;;;;4252929;33;20180;-76
2021/05/04 07:05:38;;;;;;;24.58;4.15;;;;;;;;;;4294490;33;20203;-78
2021/05/04 07:08:04;;;;;;;17.50;3.83;;;;;;;;;;4306734;33;20503;-77
2021/05/04 07:11:10;;;;;;;22.95;3.22;;;;;;;;;;4361564;32;20166;-79
2021/05/04 07:14:00;;;;;;;24.35;4.50;;;;;;;;;;4301290;33;20176;-77
2021/05/04 07:16:28;;;;;;;17.12;3.30;;;;;;;;;;4287908;33;20219;-77
2021/05/04 07:21:38;;;;;;;22.55;4.50;;;;;;;;;;4357414;32;20207;-77
2021/05/04 07:24:07;;;;;;;19.60;3.53;;;;;;;;;;4361452;32;20151;-76
2021/05/04 07:26:35;;;;;;;16.35;3.83;;;;;;;;;;4358791;32;20197;-75
2021/05/04 07:29:01;;;;;;;13.15;3.65;;;;;;;;;;4360993;32;20139;-76
2021/05/04 07:31:26;;;;;;;14.77;3.17;;;;;;;;;;4346910;33;20198;-75
2021/05/04 07:33:54;;;;;;;16.40;3.28;;;;;;;;;;4361364;32;20199;-75
2021/05/04 07:36:20;;;;;;;26.30;3.85;;;;;;;;;;4355241;33;20171;-77
2021/05/04 07:42:07;;;;;;;14.27;3.00;;;;;;;;;;4346195;33;20154;-77
2021/05/04 07:44:38;;;;;;;10.27;2.22;;;;;;;;;;4344890;33;20170;-76
2021/05/04 07:47:07;;;;;;;17.75;3.33;;;;;;;;;;4345018;33;20171;-78
2021/05/04 07:52:37;;;;;;;12.00;2.50;;;;;;;;;;4314625;33;20178;-76
2021/05/04 07:55:28;;;;;;;17.00;3.12;;;;;;;;;;4314313;33;20147;-76
2021/05/04 07:58:03;;;;;;;17.83;2.83;;;;;;;;;;4343449;33;20168;-77
2021/05/04 08:00:28;;;;;;;13.82;2.83;;;;;;;;;;4346048;33;20130;-76
2021/05/04 08:02:53;;;;;;;18.62;3.58;;;;;;;;;;4345750;33;20223;-75
2021/05/04 08:05:28;;;;;;;17.60;3.05;;;;;;;;;;4345223;33;20171;-77
2021/05/04 08:08:06;;;;;;;16.33;2.97;;;;;;;;;;4345369;33;20202;-77
2021/05/04 08:10:42;;;;;;;8.63;2.22;;;;;;;;;;4345963;33;20177;-77
2021/05/04 08:13:20;;;;;;;;;;;;;;;;;;;;;
2021/05/04 08:15:46;;;;;;;21.45;3.62;;;;;;;;;;4343704;33;20190;-74
2021/05/04 08:18:13;;;;;;;18.40;3.30;;;;;;;;;;4355164;33;20255;-75
2021/05/04 08:20:57;;;;;;;25.07;3.70;;;;;;;;;;4355425;33;20576;-75
2021/05/04 08:23:42;;;;;;;16.33;2.93;;;;;;;;;;4360553;32;20603;-74
2021/05/04 08:26:07;;;;;;;12.57;2.37;;;;;;;;;;4358184;32;20628;-74
2021/05/04 08:28:38;;;;;;;8.80;1.60;;;;;;;;;;4358743;33;20219;-76
2021/05/04 08:31:17;;;;;;;12.40;2.20;;;;;;;;;;4359018;33;20178;-74
2021/05/04 08:33:42;;;;;;;18.30;2.53;;;;;;;;;;4358475;33;20183;-70
2021/05/04 08:36:07;;;;;;;17.03;3.37;;;;;;;;;;4359687;32;20678;-70
2021/05/04 08:38:43;;;;;;;;;;;;;;;;;;;;;
2021/05/04 08:41:37;;;;;;;;;;;;;;;;;;;;;
2021/05/04 08:44:03;;;;;;;23.27;3.77;;;;;;;;;;4327672;32;20194;-71
2021/05/04 08:46:34;;;;;;;11.70;2.47;;;;;;;;;;4359792;32;20143;-71
2021/05/04 08:51:50;;;;;;;17.67;3.30;;;;;;;;;;4359787;32;20255;-71
2021/05/04 08:54:19;;;;;;;16.92;2.92;;;;;;;;;;4360243;32;20486;-71
2021/05/04 08:56:44;;;;;;;19.12;3.60;;;;;;;;;;4359685;32;20186;-70
2021/05/04 08:59:10;;;;;;;19.45;3.28;;;;;;;;;;4359944;33;20577;-71
2021/05/04 09:01:36;;;;;;;11.30;2.33;;;;;;;;;;4349064;33;20174;-71
2021/05/04 09:04:06;;;;;;;13.23;2.87;;;;;;;;;;4359422;33;20197;-70
2021/05/04 09:18:24;;;;;;;14.60;3.17;;;;;;;;;;4359256;33;20221;-73
2021/05/04 09:21:16;;;;;;;13.00;2.50;;;;;;;;;;4344546;33;20163;-71
2021/05/04 09:23:49;;;;;;;14.47;2.90;;;;;;;;;;4313519;33;20215;-70
2021/05/04 09:26:18;;;;;;;8.40;1.50;;;;;;;;;;4344147;33;20181;-69
2021/05/04 09:31:47;;;;;;;4.95;1.25;;;;;;;;;;4341771;33;20231;-72
2021/05/04 09:34:24;;;;;;;3.30;1.20;;;;;;;;;;4344786;33;20147;-72
2021/05/04 09:36:57;;;;;;;7.43;1.52;;;;;;;;;;4346037;33;20193;-70
2021/05/04 09:39:33;;;;;;;6.30;1.27;;;;;;;;;;4360538;32;20237;-72
2021/05/04 09:42:13;;;;;;;5.45;1.05;;;;;;;;;;4362631;32;20166;-71
2021/05/04 09:44:42;;;;;;;5.43;1.45;;;;;;;;;;4355518;32;20185;-72
2021/05/04 09:47:16;;;;;;;6.22;1.27;;;;;;;;;;4361925;32;20200;-74
2021/05/04 09:49:51;;;;;;;9.40;1.20;;;;;;;;;;4362270;32;20188;-73
2021/05/04 09:52:32;;;;;;;8.15;1.10;;;;;;;;;;4373721;32;20668;-74
2021/05/04 09:55:40;;;;;;;;;;;;;;;;;;;;;
2021/05/04 09:57:54;;;;;;;7.05;1.20;;;;;;;;;;4355109;33;20186;-73
2021/05/04 10:00:19;;;;;;;7.10;1.30;;;;;;;;;;4362352;32;20591;-73
2021/05/04 10:02:48;;;;;;;3.78;1.00;;;;;;;;;;4361498;32;20229;-73
2021/05/04 10:05:15;;;;;;;1.80;1.02;;;;;;;;;;4360817;32;20217;-72
2021/05/04 10:07:41;;;;;;;6.25;1.10;;;;;;;;;;4361748;32;20193;-73
2021/05/04 10:10:08;;;;;;;6.40;1.20;;;;;;;;;;4361818;32;20185;-72
2021/05/04 10:15:23;;;;;;;8.00;1.17;;;;;;;;;;4348046;33;20171;-73
2021/05/04 10:17:55;;;;;;;7.68;1.75;;;;;;;;;;4355101;32;20158;-72
2021/05/04 10:20:24;;;;;;;5.15;1.12;;;;;;;;;;4358937;33;20190;-73
2021/05/04 10:22:50;;;;;;;9.63;1.42;;;;;;;;;;4372598;32;20171;-73
2021/05/04 10:25:40;;;;;;;6.53;1.58;;;;;;;;;;4361596;32;20197;-71
2021/05/04 10:28:06;;;;;;;7.45;1.25;;;;;;;;;;4361861;32;20238;-73
2021/05/04 10:31:22;;;;;;;8.70;1.55;;;;;;;;;;4361594;32;20207;-71
2021/05/04 10:33:47;;;;;;;10.48;1.20;;;;;;;;;;4313876;33;20650;-69
2021/05/04 10:36:31;;;;;;;3.87;1.23;;;;;;;;;;4314768;33;20171;-72
2021/05/04 10:38:57;;;;;;;2.92;0.93;;;;;;;;;;4342325;32;20454;-73
2021/05/04 10:41:22;;;;;;;9.60;1.50;;;;;;;;;;4361356;32;20150;-71
2021/05/04 10:44:01;;;;;;;10.52;1.40;;;;;;;;;;4361556;33;20135;-71
2021/05/04 10:46:57;;;;;;;6.47;1.00;;;;;;;;;;4357648;32;20222;-72
2021/05/04 10:49:42;;;;;;;6.97;1.37;;;;;;;;;;4348125;32;20163;-72
2021/05/04 10:52:13;;;;;;;4.28;1.10;;;;;;;;;;4358282;33;20255;-73
2021/05/04 10:54:54;;;;;;;5.62;1.52;;;;;;;;;;4353880;32;20577;-70
2021/05/04 10:57:20;;;;;;;6.80;1.33;;;;;;;;;;4360854;33;20180;-73
2021/05/04 10:59:54;;;;;;;6.53;1.20;;;;;;;;;;4361634;32;20490;-75
2021/05/04 11:02:25;;;;;;;6.72;1.30;;;;;;;;;;4361302;32;20119;-74
2021/05/04 11:05:13;;;;;;;6.30;1.33;;;;;;;;;;4359614;32;20496;-73
2021/05/04 11:07:52;;;;;;;4.45;1.20;;;;;;;;;;4359598;32;20175;-73
2021/05/04 11:10:17;;;;;;;6.07;1.40;;;;;;;;;;4361218;32;20244;-72
2021/05/04 11:13:02;;;;;;;7.12;1.17;;;;;;;;;;4361782;32;20135;-73
2021/05/04 11:15:31;;;;;;;2.30;0.95;;;;;;;;;;4360479;32;20213;-74
2021/05/04 11:18:18;;;;;;;3.72;0.90;;;;;;;;;;4357169;32;20603;-72
2021/05/04 11:20:44;;;;;;;1.30;0.88;;;;;;;;;;4360313;32;20173;-73
2021/05/04 11:23:09;;;;;;;4.22;1.48;;;;;;;;;;4360489;32;20151;-72
2021/05/04 11:25:44;;;;;;;3.37;0.98;;;;;;;;;;4360747;32;20151;-74
2021/05/04 11:28:11;;;;;;;5.30;1.50;;;;;;;;;;4360082;32;20207;-74
2021/05/04 11:30:51;;;;;;;5.65;1.30;;;;;;;;;;4361061;32;20150;-74
2021/05/04 11:36:39;;;;;;;8.45;1.60;;;;;;;;;;4357390;32;20178;-74
2021/05/04 11:39:08;;;;;;;5.60;1.15;;;;;;;;;;4359336;33;20177;-73
2021/05/04 11:41:33;;;;;;;3.97;1.00;;;;;;;;;;4359917;32;20159;-73
2021/05/04 11:43:58;;;;;;;6.03;1.30;;;;;;;;;;4359121;32;20158;-74
2021/05/04 11:46:24;;;;;;;4.62;1.10;;;;;;;;;;4356627;32;20175;-73
2021/05/04 11:48:59;;;;;;;6.32;1.40;;;;;;;;;;4359606;33;20139;-73
2021/05/04 11:51:25;;;;;;;7.37;1.40;;;;;;;;;;4344968;33;20147;-73
2021/05/04 11:53:53;;;;;;;6.12;1.20;;;;;;;;;;4357574;32;20269;-73
2021/05/04 11:56:19;;;;;;;11.65;1.30;;;;;;;;;;4355736;33;20151;-74
2021/05/04 11:58:45;;;;;;;7.20;1.33;;;;;;;;;;4360732;32;20177;-74
2021/05/04 12:01:10;;;;;;;6.28;1.48;;;;;;;;;;4359526;32;20159;-73
2021/05/04 12:04:04;;;;;;;7.78;1.20;;;;;;;;;;4359737;33;20623;-72
2021/05/04 12:06:48;;;;;;;3.83;1.35;;;;;;;;;;4351083;33;20162;-74
2021/05/04 12:09:14;;;;;;;5.45;1.40;;;;;;;;;;4360482;32;20221;-73
2021/05/04 12:11:40;;;;;;;5.82;1.17;;;;;;;;;;4360314;32;20263;-73
2021/05/04 12:14:09;;;;;;;8.02;1.30;;;;;;;;;;4360311;32;20206;-76
2021/05/04 12:16:34;;;;;;;5.47;1.12;;;;;;;;;;4371386;32;20663;-70
2021/05/04 12:19:00;;;;;;;11.23;1.10;;;;;;;;;;4360717;32;20135;-73
2021/05/04 12:21:26;;;;;;;7.47;1.27;;;;;;;;;;4360032;33;20143;-70
2021/05/04 12:23:54;;;;;;;4.70;1.10;;;;;;;;;;4360226;32;20178;-74
2021/05/04 12:26:38;;;;;;;6.28;1.00;;;;;;;;;;4359905;33;20580;-73
2021/05/04 12:29:03;;;;;;;7.35;1.20;;;;;;;;;;4358854;32;20190;-72
2021/05/04 12:31:38;;;;;;;10.43;1.50;;;;;;;;;;4360146;32;20139;-72
2021/05/04 12:34:07;;;;;;;9.00;1.60;;;;;;;;;;4360900;32;20139;-74
2021/05/04 12:36:45;;;;;;;5.65;1.10;;;;;;;;;;4357580;32;20175;-74
2021/05/04 12:39:24;;;;;;;9.20;1.30;;;;;;;;;;4359141;33;20142;-73
2021/05/04 12:41:50;;;;;;;5.78;1.20;;;;;;;;;;4359708;32;20479;-74
2021/05/04 12:44:25;;;;;;;8.85;1.20;;;;;;;;;;4359985;32;20187;-73
2021/05/04 12:46:52;;;;;;;6.37;1.55;;;;;;;;;;4359187;32;20154;-69
2021/05/04 12:49:18;;;;;;;9.13;1.73;;;;;;;;;;4360031;32;20570;-73
2021/05/04 12:51:46;;;;;;;9.05;1.40;;;;;;;;;;4359392;32;20135;-75
2021/05/04 12:54:17;;;;;;;15.88;1.77;;;;;;;;;;4359923;32;20197;-73
2021/05/04 12:56:42;;;;;;;16.85;1.92;;;;;;;;;;4359895;32;20162;-73
2021/05/04 12:59:31;;;;;;;20.98;2.42;;;;;;;;;;4359405;33;20568;-72
2021/05/04 13:02:05;;;;;;;10.23;1.58;;;;;;;;;;4359312;33;20166;-73
2021/05/04 13:07:24;;;;;;;5.80;1.10;;;;;;;;;;4359650;33;20165;-74
2021/05/04 13:09:58;;;;;;;7.18;1.40;;;;;;;;;;4359318;33;20180;-75
2021/05/04 13:29:55;;;;;;;7.82;1.55;;;;;;;;;;4363028;32;20159;-73
2021/05/04 13:32:23;;;;;;;3.60;1.45;;;;;;;;;;4362676;33;20131;-73
2021/05/04 13:35:00;;;;;;;7.80;1.87;;;;;;;;;;4362796;32;20174;-74
2021/05/04 13:37:39;;;;;;;8.23;1.20;;;;;;;;;;4362048;33;20194;-74
2021/05/04 13:40:21;;;;;;;9.43;1.52;;;;;;;;;;4362644;32;20626;-70
2021/05/04 13:48:36;;;;;;;9.52;1.40;;;;;;;;;;4363010;32;20178;-71
2021/05/04 13:51:01;;;;;;;6.20;1.30;;;;;;;;;;4361941;32;20223;-72
2021/05/04 13:53:52;;;;;;;8.85;1.58;;;;;;;;;;4361890;32;20561;-73
2021/05/04 13:56:18;;;;;;;9.20;1.70;;;;;;;;;;4339591;33;20220;-72
2021/05/04 13:58:43;;;;;;;7.55;1.58;;;;;;;;;;4347403;33;20492;-67
2021/05/04 14:03:47;;;;;;;3.40;1.80;;;;;;;;;;4348077;33;20194;-73
2021/05/04 14:27:35;;;;;;;7.28;1.90;;;;;;;;;;4361667;32;20163;-72
2021/05/04 14:30:02;;;;;;;5.22;2.00;;;;;;;;;;4361938;33;20135;-71
2021/05/04 14:32:27;;;;;;;8.48;1.90;;;;;;;;;;4361108;33;20175;-71
2021/05/04 14:34:54;;;;;;;8.18;2.10;;;;;;;;;;4361478;32;20197;-72
2021/05/04 14:37:28;;;;;;;9.18;1.90;;;;;;;;;;4361117;32;20170;-73
2021/05/04 14:40:03;;;;;;;4.28;1.62;;;;;;;;;;4362034;32;20186;-73
2021/05/04 14:47:46;;;;;;;4.28;1.98;;;;;;;;;;4362015;32;20290;-72
2021/05/04 14:58:32;;;;;;;7.93;2.67;;;;;;;;;;4360459;32;20166;-73
2021/05/04 15:01:30;;;;;;;6.47;2.20;;;;;;;;;;4354568;33;20178;-73
2021/05/04 15:03:56;;;;;;;6.93;1.95;;;;;;;;;;4360734;32;20198;-73
2021/05/04 15:06:21;;;;;;;5.35;1.90;;;;;;;;;;4361200;33;20143;-73
2021/05/04 15:08:46;;;;;;;6.62;2.00;;;;;;;;;;4361042;32;20605;-73
2021/05/04 15:11:21;;;;;;;4.57;1.80;;;;;;;;;;4361510;32;20151;-72
2021/05/04 15:13:49;;;;;;;5.57;2.20;;;;;;;;;;4360446;32;20142;-73
2021/05/04 15:16:21;;;;;;;6.40;2.45;;;;;;;;;;4360222;32;20177;-73
2021/05/04 15:21:43;;;;;;;8.02;1.87;;;;;;;;;;4358628;32;20161;-74
2021/05/04 15:24:08;;;;;;;3.08;1.80;;;;;;;;;;4361200;32;20205;-73
2021/05/04 15:26:34;;;;;;;4.60;1.83;;;;;;;;;;4356925;33;20163;-75
2021/05/04 15:29:00;;;;;;;3.87;1.80;;;;;;;;;;4346652;33;20205;-73
2021/05/04 15:31:28;;;;;;;2.67;1.60;;;;;;;;;;4355850;32;20512;-71
2021/05/04 15:33:54;;;;;;;5.47;2.00;;;;;;;;;;4361052;32;20151;-73
2021/05/04 15:36:20;;;;;;;3.58;1.80;;;;;;;;;;4346910;33;20190;-71
2021/05/04 15:38:47;;;;;;;4.00;2.28;;;;;;;;;;4361047;32;20163;-74
2021/05/04 15:41:18;;;;;;;3.65;1.98;;;;;;;;;;4360868;32;20178;-74
2021/05/04 15:43:48;;;;;;;3.87;2.03;;;;;;;;;;4361226;32;20131;-73
2021/05/04 15:49:17;;;;;;;3.15;1.95;;;;;;;;;;4342988;33;20186;-74
2021/05/04 16:08:05;;;;;;;4.18;2.22;;;;;;;;;;4360491;32;20205;-74
2021/05/04 16:10:31;;;;;;;4.25;2.65;;;;;;;;;;4360459;33;20285;-74
2021/05/04 16:12:57;;;;;;;4.82;2.10;;;;;;;;;;4359634;32;20628;-74
2021/05/04 16:15:22;;;;;;;2.80;1.92;;;;;;;;;;4360740;32;20251;-73
2021/05/04 16:17:50;;;;;;;5.50;1.90;;;;;;;;;;4361288;32;20536;-73
2021/05/04 16:23:06;;;;;;;4.60;2.35;;;;;;;;;;4360542;32;20169;-73
2021/05/04 16:30:43;;;;;;;6.28;1.87;;;;;;;;;;4360231;32;20186;-73
2021/05/04 16:33:09;;;;;;;4.03;1.65;;;;;;;;;;4359604;32;20144;-73
2021/05/04 16:35:34;;;;;;;7.75;1.77;;;;;;;;;;4358617;32;20245;-71
2021/05/04 16:37:59;;;;;;;3.72;1.50;;;;;;;;;;4359383;32;20266;-74
2021/05/04 16:40:25;;;;;;;5.43;1.77;;;;;;;;;;4355804;32;20193;-73
2021/05/04 16:42:50;;;;;;;5.82;1.40;;;;;;;;;;4355473;33;20560;-73
2021/05/04 16:45:17;;;;;;;6.12;1.62;;;;;;;;;;4347560;33;20555;-74
2021/05/04 16:47:42;;;;;;;4.85;1.48;;;;;;;;;;4359692;32;20209;-74
2021/05/04 16:50:08;;;;;;;5.37;1.70;;;;;;;;;;4359563;32;20166;-75
2021/05/04 16:52:34;;;;;;;4.47;1.45;;;;;;;;;;4360178;32;20521;-74
2021/05/04 16:54:59;;;;;;;4.72;1.80;;;;;;;;;;4358704;32;20147;-74
2021/05/04 16:57:26;;;;;;;3.08;1.50;;;;;;;;;;4359545;32;20208;-73
2021/05/04 16:59:52;;;;;;;2.60;1.65;;;;;;;;;;4358979;33;20155;-73
2021/05/04 17:02:17;;;;;;;6.10;1.55;;;;;;;;;;4359343;32;20204;-73
2021/05/04 17:04:43;;;;;;;2.17;1.40;;;;;;;;;;4359537;33;20553;-74
2021/05/04 17:07:26;;;;;;;3.00;1.37;;;;;;;;;;4357851;33;20224;-74
2021/05/04 17:10:01;;;;;;;2.75;1.30;;;;;;;;;;4359622;33;20194;-75
2021/05/04 17:12:27;;;;;;;2.47;1.30;;;;;;;;;;4359658;33;20209;-72
2021/05/04 17:14:52;;;;;;;3.42;1.33;;;;;;;;;;4359880;33;20146;-73
2021/05/04 17:17:17;;;;;;;2.90;1.50;;;;;;;;;;4359429;33;20200;-74
2021/05/04 17:19:42;;;;;;;3.58;1.52;;;;;;;;;;4359632;33;20140;-71
2021/05/04 17:22:08;;;;;;;3.72;1.40;;;;;;;;;;4355972;33;20187;-74
2021/05/04 17:24:33;;;;;;;3.33;1.52;;;;;;;;;;4354931;33;20163;-74
2021/05/04 17:26:58;;;;;;;3.72;1.42;;;;;;;;;;4359081;33;20139;-73
2021/05/04 17:29:24;;;;;;;4.03;1.37;;;;;;;;;;4359297;33;20209;-73
2021/05/04 17:31:49;;;;;;;3.00;1.35;;;;;;;;;;4359546;33;20148;-73
2021/05/04 17:34:15;;;;;;;3.87;1.30;;;;;;;;;;4359546;33;20146;-72
2021/05/04 17:36:40;;;;;;;3.92;1.05;;;;;;;;;;4358967;33;20189;-73
2021/05/04 17:39:06;;;;;;;2.50;1.23;;;;;;;;;;4358640;33;20505;-73
2021/05/04 17:41:31;;;;;;;3.77;1.00;;;;;;;;;;4359436;33;20561;-73
2021/05/04 17:43:58;;;;;;;3.15;0.90;;;;;;;;;;4358410;33;20155;-74
2021/05/04 17:46:23;;;;;;;2.42;0.77;;;;;;;;;;4359781;33;20165;-73
2021/05/04 17:48:51;;;;;;;0.80;0.80;;;;;;;;;;4359519;33;20147;-73
2021/05/04 17:51:17;;;;;;;1.77;0.80;;;;;;;;;;4359120;33;20178;-73
2021/05/04 17:53:42;;;;;;;3.23;1.00;;;;;;;;;;4359180;33;20147;-72
2021/05/04 17:56:08;;;;;;;2.87;0.80;;;;;;;;;;4359505;33;20185;-73
2021/05/04 17:58:34;;;;;;;2.70;0.90;;;;;;;;;;4359631;32;20139;-74
2021/05/04 18:00:59;;;;;;;2.33;0.80;;;;;;;;;;4361578;32;20166;-74
2021/05/04 18:03:25;;;;;;;2.50;0.80;;;;;;;;;;4360434;33;20162;-73
2021/05/04 18:05:56;;;;;;;2.07;0.90;;;;;;;;;;4362244;32;20193;-73
2021/05/04 18:08:24;;;;;;;3.00;0.90;;;;;;;;;;4349771;32;20202;-73
2021/05/04 18:10:49;;;;;;;2.63;1.07;;;;;;;;;;4347271;33;20170;-73
2021/05/04 18:21:11;;;;;;;1.80;1.07;;;;;;;;;;4362064;32;20634;-73
2021/05/04 18:23:37;;;;;;;4.37;1.00;;;;;;;;;;4361555;32;20216;-72
2021/05/04 18:26:03;;;;;;;2.93;1.00;;;;;;;;;;4361748;32;20490;-72
2021/05/04 18:28:34;;;;;;;2.43;1.27;;;;;;;;;;4361566;32;20171;-72
2021/05/04 18:31:04;;;;;;;3.50;1.20;;;;;;;;;;4361878;32;20143;-72
2021/05/04 18:33:31;;;;;;;4.43;1.57;;;;;;;;;;4362444;32;20155;-72
2021/05/04 19:32:29;;;;;;;4.77;1.33;;;;;;;;;;4406661;27;20217;-68
2021/05/04 20:01:35;;;;;;;7.73;2.23;;;;;;;;;;4360224;32;20155;-68
2021/05/04 20:08:00;;;;;;;7.80;1.80;;;;;;;;;;4361303;32;20161;-68
2021/05/04 20:10:39;;;;;;;5.37;1.67;;;;;;;;;;4345786;33;20143;-69
2021/05/04 20:13:04;;;;;;;6.20;1.27;;;;;;;;;;4358871;32;20571;-68
2021/05/04 20:15:31;;;;;;;7.67;1.50;;;;;;;;;;4357799;32;20193;-68
2021/05/04 20:17:59;;;;;;;4.60;1.53;;;;;;;;;;4359777;32;20190;-69
2021/05/04 20:20:26;;;;;;;9.17;1.90;;;;;;;;;;4358313;33;20213;-68
2021/05/04 20:22:52;;;;;;;6.57;1.60;;;;;;;;;;4345389;33;20202;-68
2021/05/04 20:25:18;;;;;;;5.47;1.67;;;;;;;;;;4360669;32;20140;-68
2021/05/04 20:27:43;;;;;;;6.43;1.80;;;;;;;;;;4361684;32;20215;-68
2021/05/04 20:30:09;;;;;;;7.60;1.60;;;;;;;;;;4359673;33;20590;-70
2021/05/04 20:32:35;;;;;;;6.23;1.90;;;;;;;;;;4358940;32;20213;-68
2021/05/04 20:35:00;;;;;;;5.77;1.80;;;;;;;;;;4361570;32;20165;-69
2021/05/04 20:37:25;;;;;;;7.43;1.93;;;;;;;;;;4361891;32;20147;-69
2021/05/04 20:39:50;;;;;;;5.40;1.43;;;;;;;;;;4360744;32;20488;-70
2021/05/04 20:42:15;;;;;;;7.97;1.47;;;;;;;;;;4359788;33;20161;-69
2021/05/04 20:44:43;;;;;;;6.27;1.33;;;;;;;;;;4346360;33;20175;-69
2021/05/04 20:47:08;;;;;;;2.87;1.40;;;;;;;;;;4346514;33;20302;-70
2021/05/04 20:49:33;;;;;;;4.40;1.50;;;;;;;;;;4359918;32;20623;-69
2021/05/04 20:51:59;;;;;;;4.93;1.77;;;;;;;;;;4346133;33;20150;-69
2021/05/04 20:54:25;;;;;;;5.77;1.40;;;;;;;;;;4346240;33;20166;-68
2021/05/04 20:56:50;;;;;;;7.37;1.37;;;;;;;;;;4346544;33;20170;-70
2021/05/04 20:59:15;;;;;;;3.80;1.10;;;;;;;;;;4359787;33;20490;-69
2021/05/04 21:01:40;;;;;;;2.57;1.40;;;;;;;;;;4359451;33;20178;-69
2021/05/04 21:04:06;;;;;;;7.90;1.60;;;;;;;;;;4361207;32;20629;-69
2021/05/04 21:06:36;;;;;;;6.30;1.47;;;;;;;;;;4359628;33;20279;-70
2021/05/04 21:09:06;;;;;;;5.87;2.03;;;;;;;;;;4360139;33;20166;-69
2021/05/04 21:11:45;;;;;;;5.73;1.70;;;;;;;;;;4358946;33;20143;-70
2021/05/04 21:14:12;;;;;;;8.07;1.47;;;;;;;;;;4360002;33;20155;-68
2021/05/04 21:16:37;;;;;;;6.20;1.20;;;;;;;;;;4359838;33;20556;-70
2021/05/04 21:19:05;;;;;;;8.37;1.60;;;;;;;;;;4360038;33;20143;-68
2021/05/04 21:22:04;;;;;;;5.67;1.87;;;;;;;;;;4360995;33;20139;-69
2021/05/04 21:24:34;;;;;;;4.93;1.57;;;;;;;;;;4347415;33;20223;-69
2021/05/04 21:29:27;;;;;;;7.53;1.70;;;;;;;;;;4359723;33;20165;-69
2021/05/04 21:31:53;;;;;;;9.90;1.60;;;;;;;;;;4359582;33;20472;-69
2021/05/04 21:34:22;;;;;;;9.00;1.40;;;;;;;;;;4346688;33;20197;-68
2021/05/04 21:36:50;;;;;;;5.77;1.30;;;;;;;;;;4362420;32;20550;-69
2021/05/04 21:39:17;;;;;;;2.63;1.30;;;;;;;;;;4362401;32;20551;-69
2021/05/04 21:41:43;;;;;;;8.40;1.50;;;;;;;;;;4363599;32;20165;-69
2021/05/04 21:44:08;;;;;;;6.30;1.20;;;;;;;;;;4349174;33;20175;-69
2021/05/04 21:46:33;;;;;;;4.03;1.20;;;;;;;;;;4363206;32;20140;-70
2021/05/04 21:48:58;;;;;;;6.30;1.20;;;;;;;;;;4350218;32;20306;-68
2021/05/04 21:51:23;;;;;;;4.70;1.17;;;;;;;;;;4363895;32;20563;-70
2021/05/04 21:53:49;;;;;;;11.47;1.30;;;;;;;;;;4362655;33;20432;-69
2021/05/04 21:56:14;;;;;;;7.80;1.20;;;;;;;;;;4362152;32;20232;-69